sensor_id;sensor_type;location;lat;lon;timestamp;pressure;altitude;pressure_sealevel;temperature;humidity
72465;BME280;60471;52.150;4.508;2023-04-01T00:01:06;98806.97;;;9.65;93.00
72465;BME280;60471;52.150;4.508;2023-04-01T00:03:32;98811.78;;;9.82;92.91
72465;BME280;60471;52.150;4.508;2023-04-01T00:06:00;98801.63;;;9.88;92.36
72465;BME280;60471;52.150;4.508;2023-04-01T00:08:27;98806.28;;;9.96;92.20
72465;BME280;60471;52.150;4.508;2023-04-01T00:10:54;98830.72;;;9.98;91.96
72465;BME280;60471;52.150;4.508;2023-04-01T00:13:21;98813.34;;;10.07;91.74
72465;BME280;60471;52.150;4.508;2023-04-01T00:15:47;98811.53;;;9.85;92.01
72465;BME280;60471;52.150;4.508;2023-04-01T00:18:14;98815.50;;;9.79;92.22
72465;BME280;60471;52.150;4.508;2023-04-01T00:20:44;98807.13;;;9.85;92.01
72465;BME280;60471;52.150;4.508;2023-04-01T00:23:12;98837.75;;;9.86;92.07
72465;BME280;60471;52.150;4.508;2023-04-01T00:25:38;98821.22;;;9.73;92.42
72465;BME280;60471;52.150;4.508;2023-04-01T00:28:05;98832.97;;;9.80;92.32
72465;BME280;60471;52.150;4.508;2023-04-01T00:30:31;98811.66;;;9.83;92.20
72465;BME280;60471;52.150;4.508;2023-04-01T00:32:58;98823.31;;;10.03;91.43
72465;BME280;60471;52.150;4.508;2023-04-01T00:35:24;98816.69;;;9.75;91.71
72465;BME280;60471;52.150;4.508;2023-04-01T00:37:50;98824.00;;;9.83;92.20
72465;BME280;60471;52.150;4.508;2023-04-01T00:40:33;98825.78;;;9.71;92.31
72465;BME280;60471;52.150;4.508;2023-04-01T00:43:11;98845.06;;;9.72;92.22
72465;BME280;60471;52.150;4.508;2023-04-01T00:45:48;98836.09;;;9.85;92.29
72465;BME280;60471;52.150;4.508;2023-04-01T00:48:21;98835.63;;;9.80;92.08
72465;BME280;60471;52.150;4.508;2023-04-01T00:50:54;98836.09;;;9.85;92.42
72465;BME280;60471;52.150;4.508;2023-04-01T00:53:27;98849.41;;;9.95;91.80
72465;BME280;60471;52.150;4.508;2023-04-01T00:56:00;98842.69;;;9.91;91.82
72465;BME280;60471;52.150;4.508;2023-04-01T00:58:33;98846.41;;;9.88;91.61
72465;BME280;60471;52.150;4.508;2023-04-01T01:01:04;98841.50;;;9.95;91.45
72465;BME280;60471;52.150;4.508;2023-04-01T01:03:31;98840.41;;;9.98;91.27
72465;BME280;60471;52.150;4.508;2023-04-01T01:09:03;98854.22;;;10.01;90.98
72465;BME280;60471;52.150;4.508;2023-04-01T01:11:48;98856.34;;;10.07;90.98
72465;BME280;60471;52.150;4.508;2023-04-01T01:14:47;98864.75;;;10.01;90.53
72465;BME280;60471;52.150;4.508;2023-04-01T01:17:38;98867.50;;;9.88;91.15
72465;BME280;60471;52.150;4.508;2023-04-01T01:26:31;98865.66;;;9.78;91.74
72465;BME280;60471;52.150;4.508;2023-04-01T01:31:58;98877.28;;;9.86;91.50
72465;BME280;60471;52.150;4.508;2023-04-01T01:37:30;98872.78;;;10.00;91.46
72465;BME280;60471;52.150;4.508;2023-04-01T01:40:02;98874.19;;;10.04;91.12
72465;BME280;60471;52.150;4.508;2023-04-01T01:42:33;98878.38;;;9.95;91.32
72465;BME280;60471;52.150;4.508;2023-04-01T01:45:04;98887.50;;;10.02;91.31
72465;BME280;60471;52.150;4.508;2023-04-01T01:47:34;98878.06;;;10.11;90.83
72465;BME280;60471;52.150;4.508;2023-04-01T01:50:03;98889.78;;;10.18;90.47
72465;BME280;60471;52.150;4.508;2023-04-01T01:52:31;98888.81;;;10.19;90.67
72465;BME280;60471;52.150;4.508;2023-04-01T01:54:58;98897.56;;;10.08;91.06
72465;BME280;60471;52.150;4.508;2023-04-01T01:57:29;98887.97;;;10.18;90.89
72465;BME280;60471;52.150;4.508;2023-04-01T02:00:08;98890.06;;;10.26;90.64
72465;BME280;60471;52.150;4.508;2023-04-01T02:02:45;98895.47;;;10.25;90.55
72465;BME280;60471;52.150;4.508;2023-04-01T02:05:23;98896.16;;;10.27;90.18
72465;BME280;60471;52.150;4.508;2023-04-01T02:07:55;98907.31;;;10.30;90.32
72465;BME280;60471;52.150;4.508;2023-04-01T02:10:31;98913.31;;;10.43;90.00
72465;BME280;60471;52.150;4.508;2023-04-01T02:13:05;98919.44;;;10.33;90.55
72465;BME280;60471;52.150;4.508;2023-04-01T02:15:41;98916.44;;;10.37;90.32
72465;BME280;60471;52.150;4.508;2023-04-01T02:18:13;98923.63;;;10.35;90.03
72465;BME280;60471;52.150;4.508;2023-04-01T02:20:42;98932.97;;;10.39;90.30
72465;BME280;60471;52.150;4.508;2023-04-01T02:23:10;98931.53;;;10.35;90.45
72465;BME280;60471;52.150;4.508;2023-04-01T02:25:39;98924.72;;;10.44;90.24
72465;BME280;60471;52.150;4.508;2023-04-01T02:28:09;98932.63;;;10.55;89.75
72465;BME280;60471;52.150;4.508;2023-04-01T02:30:39;98936.56;;;10.50;89.90
72465;BME280;60471;52.150;4.508;2023-04-01T02:33:08;98941.72;;;10.51;89.84
72465;BME280;60471;52.150;4.508;2023-04-01T02:35:37;98946.16;;;10.62;89.56
72465;BME280;60471;52.150;4.508;2023-04-01T02:38:04;98951.53;;;10.71;89.05
72465;BME280;60471;52.150;4.508;2023-04-01T02:40:41;98952.03;;;10.77;88.62
72465;BME280;60471;52.150;4.508;2023-04-01T02:43:09;98957.78;;;10.82;88.44
72465;BME280;60471;52.150;4.508;2023-04-01T02:45:35;98957.44;;;10.75;88.76
72465;BME280;60471;52.150;4.508;2023-04-01T02:48:02;98959.34;;;10.84;88.52
72465;BME280;60471;52.150;4.508;2023-04-01T02:50:28;98967.47;;;10.92;88.26
72465;BME280;60471;52.150;4.508;2023-04-01T02:52:54;98971.09;;;10.91;88.20
72465;BME280;60471;52.150;4.508;2023-04-01T02:55:21;98972.53;;;10.84;88.62
72465;BME280;60471;52.150;4.508;2023-04-01T02:57:48;98971.69;;;10.84;88.59
72465;BME280;60471;52.150;4.508;2023-04-01T03:00:14;98983.06;;;10.84;88.22
72465;BME280;60471;52.150;4.508;2023-04-01T03:02:41;98989.69;;;10.90;88.40
72465;BME280;60471;52.150;4.508;2023-04-01T03:05:08;98995.94;;;10.89;88.48
72465;BME280;60471;52.150;4.508;2023-04-01T03:07:34;98990.66;;;10.89;88.48
72465;BME280;60471;52.150;4.508;2023-04-01T03:10:00;98997.09;;;10.85;88.49
72465;BME280;60471;52.150;4.508;2023-04-01T03:12:26;99006.72;;;10.74;88.87
72465;BME280;60471;52.150;4.508;2023-04-01T03:14:52;98999.66;;;10.86;88.53
72465;BME280;60471;52.150;4.508;2023-04-01T03:17:19;99009.13;;;10.78;88.82
72465;BME280;60471;52.150;4.508;2023-04-01T03:19:45;99018.47;;;10.82;88.64
72465;BME280;60471;52.150;4.508;2023-04-01T03:22:11;99016.06;;;10.79;88.64
72465;BME280;60471;52.150;4.508;2023-04-01T03:24:37;99020.00;;;10.84;88.86
72465;BME280;60471;52.150;4.508;2023-04-01T03:27:04;99020.97;;;10.83;88.71
72465;BME280;60471;52.150;4.508;2023-04-01T03:29:30;99029.13;;;10.80;88.67
72465;BME280;60471;52.150;4.508;2023-04-01T03:31:56;99032.03;;;10.77;88.96
72465;BME280;60471;52.150;4.508;2023-04-01T03:34:24;99031.66;;;10.82;88.66
72465;BME280;60471;52.150;4.508;2023-04-01T03:36:51;99040.06;;;10.87;88.56
72465;BME280;60471;52.150;4.508;2023-04-01T03:39:18;99051.34;;;10.89;88.55
72465;BME280;60471;52.150;4.508;2023-04-01T03:41:45;99053.13;;;10.88;88.51
72465;BME280;60471;52.150;4.508;2023-04-01T03:44:12;99053.72;;;10.81;88.60
72465;BME280;60471;52.150;4.508;2023-04-01T03:46:38;99057.91;;;10.83;88.36
72465;BME280;60471;52.150;4.508;2023-04-01T03:49:09;99068.97;;;10.88;88.22
72465;BME280;60471;52.150;4.508;2023-04-01T03:51:37;99068.25;;;10.86;87.83
72465;BME280;60471;52.150;4.508;2023-04-01T03:54:05;99073.97;;;10.69;88.36
72465;BME280;60471;52.150;4.508;2023-04-01T03:56:32;99069.56;;;10.81;88.20
72465;BME280;60471;52.150;4.508;2023-04-01T03:58:58;99083.09;;;10.76;88.58
72465;BME280;60471;52.150;4.508;2023-04-01T04:01:29;99085.63;;;10.89;88.01
72465;BME280;60471;52.150;4.508;2023-04-01T04:03:55;99086.34;;;10.80;88.30
72465;BME280;60471;52.150;4.508;2023-04-01T04:06:22;99099.91;;;10.75;87.79
72465;BME280;60471;52.150;4.508;2023-04-01T04:08:50;99097.97;;;10.77;87.78
72465;BME280;60471;52.150;4.508;2023-04-01T04:11:18;99099.63;;;10.67;87.75
72465;BME280;60471;52.150;4.508;2023-04-01T04:13:45;99101.06;;;10.71;87.88
72465;BME280;60471;52.150;4.508;2023-04-01T04:16:14;99106.84;;;10.76;87.72
72465;BME280;60471;52.150;4.508;2023-04-01T04:18:42;99113.28;;;10.72;87.71
72465;BME280;60471;52.150;4.508;2023-04-01T04:21:12;99118.19;;;10.54;88.08
72465;BME280;60471;52.150;4.508;2023-04-01T04:23:40;99119.25;;;10.63;88.29
72465;BME280;60471;52.150;4.508;2023-04-01T04:26:09;99128.53;;;10.68;87.66
72465;BME280;60471;52.150;4.508;2023-04-01T04:28:37;99128.75;;;10.54;88.16
72465;BME280;60471;52.150;4.508;2023-04-01T04:31:05;99139.91;;;10.69;87.46
72465;BME280;60471;52.150;4.508;2023-04-01T04:33:33;99139.56;;;10.73;87.54
72465;BME280;60471;52.150;4.508;2023-04-01T04:36:00;99151.44;;;10.68;87.43
72465;BME280;60471;52.150;4.508;2023-04-01T04:38:27;99149.63;;;10.68;87.72
72465;BME280;60471;52.150;4.508;2023-04-01T04:40:55;99146.31;;;10.78;87.41
72465;BME280;60471;52.150;4.508;2023-04-01T04:43:21;99159.81;;;10.73;87.55
72465;BME280;60471;52.150;4.508;2023-04-01T04:45:48;99161.75;;;10.71;87.37
72465;BME280;60471;52.150;4.508;2023-04-01T04:48:16;99165.34;;;10.70;87.47
72465;BME280;60471;52.150;4.508;2023-04-01T04:50:45;99163.25;;;10.62;87.99
72465;BME280;60471;52.150;4.508;2023-04-01T04:53:14;99172.50;;;10.57;87.99
72465;BME280;60471;52.150;4.508;2023-04-01T04:55:45;99170.69;;;10.57;87.51
72465;BME280;60471;52.150;4.508;2023-04-01T04:58:15;99182.31;;;10.55;87.87
72465;BME280;60471;52.150;4.508;2023-04-01T05:00:42;99178.84;;;10.54;87.46
72465;BME280;60471;52.150;4.508;2023-04-01T05:03:09;99193.97;;;10.63;87.35
72465;BME280;60471;52.150;4.508;2023-04-01T05:05:37;99190.34;;;10.53;87.43
72465;BME280;60471;52.150;4.508;2023-04-01T05:08:04;99190.56;;;10.50;87.48
72465;BME280;60471;52.150;4.508;2023-04-01T05:10:31;99204.69;;;10.49;87.81
72465;BME280;60471;52.150;4.508;2023-04-01T05:12:58;99205.38;;;10.40;87.81
72465;BME280;60471;52.150;4.508;2023-04-01T05:15:24;99205.09;;;10.56;87.44
72465;BME280;60471;52.150;4.508;2023-04-01T05:17:50;99212.22;;;10.66;87.70
72465;BME280;60471;52.150;4.508;2023-04-01T05:20:17;99224.88;;;10.61;87.39
72465;BME280;60471;52.150;4.508;2023-04-01T05:22:43;99214.63;;;10.69;86.87
72465;BME280;60471;52.150;4.508;2023-04-01T05:25:09;99220.44;;;10.62;86.94
72465;BME280;60471;52.150;4.508;2023-04-01T05:27:35;99225.78;;;10.73;86.66
72465;BME280;60471;52.150;4.508;2023-04-01T05:30:02;99230.50;;;10.81;86.34
72465;BME280;60471;52.150;4.508;2023-04-01T05:32:30;99233.88;;;10.59;86.78
72465;BME280;60471;52.150;4.508;2023-04-01T05:34:57;99237.53;;;10.69;86.80
72465;BME280;60471;52.150;4.508;2023-04-01T05:37:23;99251.94;;;10.76;86.63
72465;BME280;60471;52.150;4.508;2023-04-01T05:39:51;99249.31;;;10.76;86.43
72465;BME280;60471;52.150;4.508;2023-04-01T05:42:18;99257.66;;;10.70;86.75
72465;BME280;60471;52.150;4.508;2023-04-01T05:44:44;99257.66;;;10.70;86.69
72465;BME280;60471;52.150;4.508;2023-04-01T05:47:10;99262.63;;;10.74;86.35
72465;BME280;60471;52.150;4.508;2023-04-01T05:49:36;99264.97;;;10.66;86.80
72465;BME280;60471;52.150;4.508;2023-04-01T05:52:02;99274.34;;;10.70;86.44
72465;BME280;60471;52.150;4.508;2023-04-01T05:54:29;99277.53;;;10.63;86.49
72465;BME280;60471;52.150;4.508;2023-04-01T05:56:55;99276.31;;;10.56;86.73
72465;BME280;60471;52.150;4.508;2023-04-01T05:59:21;99274.41;;;10.58;86.70
72465;BME280;60471;52.150;4.508;2023-04-01T06:01:47;99289.38;;;10.57;86.66
72465;BME280;60471;52.150;4.508;2023-04-01T06:04:16;99281.53;;;10.44;87.04
72465;BME280;60471;52.150;4.508;2023-04-01T06:06:44;99292.56;;;10.50;86.90
72465;BME280;60471;52.150;4.508;2023-04-01T06:09:18;99289.94;;;10.50;86.73
72465;BME280;60471;52.150;4.508;2023-04-01T06:17:49;99310.72;;;10.54;86.61
72465;BME280;60471;52.150;4.508;2023-04-01T06:24:45;99317.47;;;10.45;86.96
72465;BME280;60471;52.150;4.508;2023-04-01T06:30:19;99329.06;;;10.56;86.60
72465;BME280;60471;52.150;4.508;2023-04-01T06:33:05;99331.13;;;10.63;86.77
72465;BME280;60471;52.150;4.508;2023-04-01T06:50:28;99355.47;;;11.03;85.05
72465;BME280;60471;52.150;4.508;2023-04-01T06:53:21;99361.53;;;10.93;84.72
72465;BME280;60471;52.150;4.508;2023-04-01T06:56:14;99366.56;;;10.96;84.72
72465;BME280;60471;52.150;4.508;2023-04-01T06:58:45;99367.41;;;10.72;85.45
72465;BME280;60471;52.150;4.508;2023-04-01T07:01:43;99376.72;;;10.65;85.54
72465;BME280;60471;52.150;4.508;2023-04-01T07:04:19;99382.03;;;10.89;85.34
72465;BME280;60471;52.150;4.508;2023-04-01T07:06:54;99389.03;;;11.01;84.94
72465;BME280;60471;52.150;4.508;2023-04-01T07:09:31;99385.22;;;10.82;85.16
72465;BME280;60471;52.150;4.508;2023-04-01T07:12:11;99387.59;;;10.97;85.30
72465;BME280;60471;52.150;4.508;2023-04-01T07:14:45;99392.75;;;10.99;84.68
72465;BME280;60471;52.150;4.508;2023-04-01T07:17:19;99393.59;;;10.99;84.42
72465;BME280;60471;52.150;4.508;2023-04-01T07:19:57;99397.63;;;10.92;84.36
72465;BME280;60471;52.150;4.508;2023-04-01T07:22:38;99404.38;;;10.96;84.79
72465;BME280;60471;52.150;4.508;2023-04-01T07:25:20;99408.28;;;10.91;84.63
72465;BME280;60471;52.150;4.508;2023-04-01T07:27:53;99414.06;;;10.96;84.57
72465;BME280;60471;52.150;4.508;2023-04-01T07:30:29;99420.31;;;10.95;84.80
72465;BME280;60471;52.150;4.508;2023-04-01T07:33:16;99419.66;;;11.04;84.49
72465;BME280;60471;52.150;4.508;2023-04-01T07:38:51;99424.44;;;10.99;84.12
72465;BME280;60471;52.150;4.508;2023-04-01T07:44:34;99437.41;;;11.02;84.17
72465;BME280;60471;52.150;4.508;2023-04-01T08:02:14;99456.09;;;10.99;84.65
72465;BME280;60471;52.150;4.508;2023-04-01T08:04:38;99466.78;;;10.97;84.42
72465;BME280;60471;52.150;4.508;2023-04-01T08:07:32;99468.66;;;10.95;83.92
72465;BME280;60471;52.150;4.508;2023-04-01T08:10:24;99475.50;;;11.11;84.03
72465;BME280;60471;52.150;4.508;2023-04-01T08:16:23;99484.22;;;11.24;83.06
72465;BME280;60471;52.150;4.508;2023-04-01T08:22:05;99482.47;;;11.12;83.33
72465;BME280;60471;52.150;4.508;2023-04-01T08:24:42;99488.22;;;11.17;83.34
72465;BME280;60471;52.150;4.508;2023-04-01T08:30:06;99497.31;;;11.49;82.14
72465;BME280;60471;52.150;4.508;2023-04-01T08:32:48;99498.44;;;11.58;81.66
72465;BME280;60471;52.150;4.508;2023-04-01T08:35:37;99504.25;;;11.63;81.20
72465;BME280;60471;52.150;4.508;2023-04-01T08:38:15;99506.19;;;11.48;81.26
72465;BME280;60471;52.150;4.508;2023-04-01T08:40:56;99506.09;;;11.74;81.00
72465;BME280;60471;52.150;4.508;2023-04-01T08:52:32;99529.97;;;11.48;81.91
72465;BME280;60471;52.150;4.508;2023-04-01T08:58:01;99527.97;;;11.76;81.28
72465;BME280;60471;52.150;4.508;2023-04-01T09:00:51;99536.63;;;11.78;81.10
72465;BME280;60471;52.150;4.508;2023-04-01T09:03:36;99532.59;;;11.85;80.74
72465;BME280;60471;52.150;4.508;2023-04-01T09:29:35;99564.19;;;12.10;79.63
72465;BME280;60471;52.150;4.508;2023-04-01T09:35:30;99571.06;;;11.89;80.02
72465;BME280;60471;52.150;4.508;2023-04-01T09:38:28;99571.06;;;11.89;80.33
72465;BME280;60471;52.150;4.508;2023-04-01T09:44:00;99575.53;;;11.76;80.39
72465;BME280;60471;52.150;4.508;2023-04-01T09:52:38;99583.88;;;12.06;79.94
72465;BME280;60471;52.150;4.508;2023-04-01T10:08:15;99602.28;;;11.84;79.57
72465;BME280;60471;52.150;4.508;2023-04-01T10:28:52;99626.03;;;11.97;79.56
72465;BME280;60471;52.150;4.508;2023-04-01T10:50:09;99643.22;;;12.26;79.07
72465;BME280;60471;52.150;4.508;2023-04-01T11:21:45;99660.53;;;13.00;75.45
72465;BME280;60471;52.150;4.508;2023-04-01T11:24:47;99664.59;;;12.82;76.22
72465;BME280;60471;52.150;4.508;2023-04-01T11:33:54;99677.19;;;12.67;76.92
72465;BME280;60471;52.150;4.508;2023-04-01T11:36:51;99685.59;;;12.61;76.67
72465;BME280;60471;52.150;4.508;2023-04-01T11:42:51;99684.16;;;12.68;77.02
72465;BME280;60471;52.150;4.508;2023-04-01T11:45:35;99689.25;;;12.71;77.66
72465;BME280;60471;52.150;4.508;2023-04-01T12:03:54;99712.75;;;13.67;74.09
72465;BME280;60471;52.150;4.508;2023-04-01T12:11:45;99722.72;;;14.19;71.51
72465;BME280;60471;52.150;4.508;2023-04-01T12:14:54;99723.41;;;13.89;72.41
72465;BME280;60471;52.150;4.508;2023-04-01T12:17:42;99730.84;;;14.07;71.60
72465;BME280;60471;52.150;4.508;2023-04-01T12:23:24;99736.50;;;14.02;71.81
72465;BME280;60471;52.150;4.508;2023-04-01T12:29:07;99750.00;;;13.66;74.04
72465;BME280;60471;52.150;4.508;2023-04-01T12:34:49;99748.81;;;14.03;72.36
72465;BME280;60471;52.150;4.508;2023-04-01T12:37:50;99751.59;;;13.57;73.99
72465;BME280;60471;52.150;4.508;2023-04-01T12:59:01;99777.56;;;14.41;70.53
72465;BME280;60471;52.150;4.508;2023-04-01T13:16:29;99795.16;;;14.65;68.00
72465;BME280;60471;52.150;4.508;2023-04-01T13:27:32;99812.53;;;14.69;68.38
72465;BME280;60471;52.150;4.508;2023-04-01T13:34:02;99811.88;;;15.20;66.12
72465;BME280;60471;52.150;4.508;2023-04-01T13:40:33;99819.47;;;16.58;62.61
72465;BME280;60471;52.150;4.508;2023-04-01T13:43:15;99822.22;;;16.06;64.03
72465;BME280;60471;52.150;4.508;2023-04-01T14:06:09;99851.41;;;13.91;70.78
72465;BME280;60471;52.150;4.508;2023-04-01T14:12:00;99860.88;;;13.25;75.01
72465;BME280;60471;52.150;4.508;2023-04-01T14:31:50;99888.22;;;12.53;79.73
72465;BME280;60471;52.150;4.508;2023-04-01T14:52:32;99916.34;;;13.03;76.58
72465;BME280;60471;52.150;4.508;2023-04-01T14:55:27;99917.41;;;13.00;76.92
72465;BME280;60471;52.150;4.508;2023-04-01T14:58:11;99930.19;;;12.83;77.45
72465;BME280;60471;52.150;4.508;2023-04-01T15:03:39;99934.31;;;12.74;77.82
72465;BME280;60471;52.150;4.508;2023-04-01T15:09:29;99948.00;;;12.68;79.79
72465;BME280;60471;52.150;4.508;2023-04-01T15:12:10;99960.34;;;12.93;79.31
72465;BME280;60471;52.150;4.508;2023-04-01T15:14:51;99955.59;;;13.22;78.29
72465;BME280;60471;52.150;4.508;2023-04-01T15:23:31;99974.16;;;12.72;79.11
72465;BME280;60471;52.150;4.508;2023-04-01T15:29:22;99983.25;;;12.56;80.93
72465;BME280;60471;52.150;4.508;2023-04-01T15:32:02;99987.28;;;12.10;82.74
72465;BME280;60471;52.150;4.508;2023-04-01T15:46:31;100017.88;;;12.27;82.33
72465;BME280;60471;52.150;4.508;2023-04-01T15:49:36;100030.16;;;12.28;82.23
72465;BME280;60471;52.150;4.508;2023-04-01T16:10:22;100066.59;;;12.10;80.60
72465;BME280;60471;52.150;4.508;2023-04-01T16:19:16;100081.09;;;12.05;81.11
72465;BME280;60471;52.150;4.508;2023-04-01T16:22:16;100085.81;;;12.00;81.52
72465;BME280;60471;52.150;4.508;2023-04-01T16:24:53;100074.47;;;11.71;83.14
72465;BME280;60471;52.150;4.508;2023-04-01T16:30:57;100099.31;;;11.68;83.42
72465;BME280;60471;52.150;4.508;2023-04-01T16:33:40;100106.22;;;11.56;83.58
72465;BME280;60471;52.150;4.508;2023-04-01T16:36:34;100101.31;;;11.65;82.80
72465;BME280;60471;52.150;4.508;2023-04-01T16:39:22;100103.22;;;11.48;82.17
72465;BME280;60471;52.150;4.508;2023-04-01T16:42:09;100125.56;;;11.57;81.98
72465;BME280;60471;52.150;4.508;2023-04-01T16:44:51;100121.22;;;11.56;81.80
72465;BME280;60471;52.150;4.508;2023-04-01T16:47:30;100124.06;;;11.39;83.02
72465;BME280;60471;52.150;4.508;2023-04-01T16:56:09;100150.41;;;11.40;82.28
72465;BME280;60471;52.150;4.508;2023-04-01T16:59:07;100155.59;;;11.42;82.35
72465;BME280;60471;52.150;4.508;2023-04-01T17:07:46;100173.41;;;11.38;81.25
72465;BME280;60471;52.150;4.508;2023-04-01T17:10:51;100178.63;;;11.40;81.48
72465;BME280;60471;52.150;4.508;2023-04-01T17:30:13;100227.47;;;11.18;81.29
72465;BME280;60471;52.150;4.508;2023-04-01T17:35:33;100247.34;;;11.10;81.14
72465;BME280;60471;52.150;4.508;2023-04-01T17:38:16;100241.78;;;11.14;81.91
72465;BME280;60471;52.150;4.508;2023-04-01T17:44:14;100267.09;;;11.18;80.90
72465;BME280;60471;52.150;4.508;2023-04-01T17:52:32;100289.25;;;10.86;81.69
72465;BME280;60471;52.150;4.508;2023-04-01T17:55:40;100289.72;;;10.92;80.95
72465;BME280;60471;52.150;4.508;2023-04-01T18:04:49;100310.34;;;10.86;81.57
72465;BME280;60471;52.150;4.508;2023-04-01T18:11:00;100327.28;;;10.97;81.05
72465;BME280;60471;52.150;4.508;2023-04-01T18:20:11;100357.41;;;10.93;80.90
72465;BME280;60471;52.150;4.508;2023-04-01T18:25:38;100355.22;;;10.70;81.15
72465;BME280;60471;52.150;4.508;2023-04-01T18:31:15;100373.53;;;10.57;81.09
72465;BME280;60471;52.150;4.508;2023-04-01T18:33:50;100373.59;;;10.40;81.57
72465;BME280;60471;52.150;4.508;2023-04-01T18:36:44;100382.28;;;10.42;81.54
72465;BME280;60471;52.150;4.508;2023-04-01T18:39:18;100383.63;;;10.49;80.99
72465;BME280;60471;52.150;4.508;2023-04-01T18:42:00;100400.06;;;10.38;81.16
72465;BME280;60471;52.150;4.508;2023-04-01T18:44:49;100417.34;;;10.44;80.63
72465;BME280;60471;52.150;4.508;2023-04-01T18:50:43;100429.47;;;10.64;80.28
72465;BME280;60471;52.150;4.508;2023-04-01T18:53:31;100427.31;;;10.55;80.11
72465;BME280;60471;52.150;4.508;2023-04-01T18:56:33;100440.16;;;10.45;80.44
72465;BME280;60471;52.150;4.508;2023-04-01T19:07:51;100465.81;;;10.41;80.37
72465;BME280;60471;52.150;4.508;2023-04-01T19:21:58;100491.56;;;10.19;81.13
72465;BME280;60471;52.150;4.508;2023-04-01T19:27:53;100510.72;;;10.40;80.10
72465;BME280;60471;52.150;4.508;2023-04-01T19:36:11;100528.59;;;10.00;80.26
72465;BME280;60471;52.150;4.508;2023-04-01T19:45:07;100534.56;;;10.04;80.47
72465;BME280;60471;52.150;4.508;2023-04-01T19:51:23;100559.91;;;10.06;80.07
72465;BME280;60471;52.150;4.508;2023-04-01T19:56:48;100571.06;;;9.94;80.12
72465;BME280;60471;52.150;4.508;2023-04-01T19:59:43;100573.56;;;10.14;79.42
72465;BME280;60471;52.150;4.508;2023-04-01T20:05:30;100583.38;;;9.94;80.26
72465;BME280;60471;52.150;4.508;2023-04-01T20:11:27;100601.25;;;9.87;80.38
72465;BME280;60471;52.150;4.508;2023-04-01T20:17:30;100613.75;;;9.65;80.53
72465;BME280;60471;52.150;4.508;2023-04-01T20:25:24;100631.56;;;9.78;79.79
72465;BME280;60471;52.150;4.508;2023-04-01T20:28:21;100631.94;;;9.71;79.54
72465;BME280;60471;52.150;4.508;2023-04-01T20:33:57;100651.72;;;9.61;80.30
72465;BME280;60471;52.150;4.508;2023-04-01T20:36:55;100652.16;;;9.70;79.72
72465;BME280;60471;52.150;4.508;2023-04-01T20:43:39;100667.03;;;9.52;79.65
72465;BME280;60471;52.150;4.508;2023-04-01T20:52:32;100686.09;;;9.76;78.74
72465;BME280;60471;52.150;4.508;2023-04-01T20:56:02;100691.72;;;9.50;79.78
72465;BME280;60471;52.150;4.508;2023-04-01T20:58:57;100692.38;;;9.55;79.80
72465;BME280;60471;52.150;4.508;2023-04-01T21:11:25;100720.88;;;9.26;80.56
72465;BME280;60471;52.150;4.508;2023-04-01T21:29:21;100766.19;;;9.35;79.40
72465;BME280;60471;52.150;4.508;2023-04-01T21:32:10;100771.22;;;9.39;79.56
72465;BME280;60471;52.150;4.508;2023-04-01T21:35:00;100769.19;;;9.46;79.17
72465;BME280;60471;52.150;4.508;2023-04-01T21:58:41;100824.88;;;9.37;78.29
72465;BME280;60471;52.150;4.508;2023-04-01T22:04:59;100834.69;;;9.13;79.44
72465;BME280;60471;52.150;4.508;2023-04-01T22:11:24;100841.38;;;8.99;78.86
72465;BME280;60471;52.150;4.508;2023-04-01T22:14:03;100850.81;;;8.83;79.60
72465;BME280;60471;52.150;4.508;2023-04-01T22:16:41;100854.59;;;8.98;79.12
72465;BME280;60471;52.150;4.508;2023-04-01T22:19:36;100869.28;;;9.04;78.80
72465;BME280;60471;52.150;4.508;2023-04-01T22:22:21;100866.53;;;9.07;78.22
72465;BME280;60471;52.150;4.508;2023-04-01T22:25:04;100881.47;;;8.84;79.17
72465;BME280;60471;52.150;4.508;2023-04-01T22:27:52;100871.06;;;8.81;78.56
72465;BME280;60471;52.150;4.508;2023-04-01T22:33:19;100877.50;;;8.74;78.95
72465;BME280;60471;52.150;4.508;2023-04-01T22:39:19;100882.47;;;8.82;78.46
72465;BME280;60471;52.150;4.508;2023-04-01T22:47:29;100905.81;;;8.89;78.94
72465;BME280;60471;52.150;4.508;2023-04-01T22:50:26;100916.75;;;8.79;78.84
72465;BME280;60471;52.150;4.508;2023-04-01T22:53:16;100917.44;;;9.06;78.79
72465;BME280;60471;52.150;4.508;2023-04-01T22:55:46;100921.78;;;9.07;78.42
72465;BME280;60471;52.150;4.508;2023-04-01T22:58:21;100932.56;;;9.00;78.79
72465;BME280;60471;52.150;4.508;2023-04-01T23:00:59;100930.19;;;9.16;78.13
72465;BME280;60471;52.150;4.508;2023-04-01T23:03:34;100937.59;;;9.07;78.17
72465;BME280;60471;52.150;4.508;2023-04-01T23:06:12;100944.84;;;9.00;78.21
72465;BME280;60471;52.150;4.508;2023-04-01T23:09:17;100944.41;;;8.89;78.54
72465;BME280;60471;52.150;4.508;2023-04-01T23:14:44;100953.84;;;8.73;78.10
72465;BME280;60471;52.150;4.508;2023-04-01T23:20:23;100962.75;;;8.92;77.74
72465;BME280;60471;52.150;4.508;2023-04-01T23:23:20;100972.44;;;8.90;77.69
72465;BME280;60471;52.150;4.508;2023-04-01T23:26:18;100972.66;;;8.85;77.58
72465;BME280;60471;52.150;4.508;2023-04-01T23:28:49;100977.34;;;8.77;78.42
72465;BME280;60471;52.150;4.508;2023-04-01T23:36:50;100991.13;;;8.84;77.62
72465;BME280;60471;52.150;4.508;2023-04-01T23:39:49;100997.84;;;8.69;77.75
72465;BME280;60471;52.150;4.508;2023-04-01T23:42:32;100991.78;;;8.89;77.41
72465;BME280;60471;52.150;4.508;2023-04-01T23:45:15;100993.38;;;8.71;77.63
72465;BME280;60471;52.150;4.508;2023-04-01T23:47:46;101009.03;;;8.74;77.61
72465;BME280;60471;52.150;4.508;2023-04-01T23:50:18;101005.66;;;8.47;78.63
72465;BME280;60471;52.150;4.508;2023-04-01T23:52:52;101012.13;;;8.62;77.49
72465;BME280;60471;52.150;4.508;2023-04-01T23:55:27;101015.00;;;8.79;77.01
